Time;durP1;ratioP1;P1;durP2;ratioP2;P2;SDS_P1;SDS_P2;PMS_P1;PMS_P2;Temp;Humidity;BMP_temperature;BMP_pressure;BME280_temperature;BME280_humidity;BME280_pressure;Samples;Min_cycle;Max_cycle;Signal;HPM_P1;HPM_P2
2023/10/24 00:01:14;;;;;;;1.08;0.30;;;;;;;5.83;70.60;101611.41;6152540;23;20021;-82
2023/10/24 00:03:41;;;;;;;0.90;0.30;;;;;;;5.82;70.80;101611.34;6149751;23;20017;-82
2023/10/24 00:06:08;;;;;;;3.13;0.30;;;;;;;5.77;70.79;101608.69;6153291;23;20125;-82
2023/10/24 00:08:35;;;;;;;1.30;0.40;;;;;;;5.74;70.86;101610.38;6151635;23;20022;-81
2023/10/24 00:11:03;;;;;;;0.82;0.30;;;;;;;5.72;70.72;101606.88;6150478;23;20022;-73
2023/10/24 00:13:30;;;;;;;1.10;0.30;;;;;;;5.69;70.90;101612.03;6145214;23;20630;-73
2023/10/24 00:15:59;;;;;;;0.50;0.25;;;;;;;5.67;70.70;101621.50;6149810;23;20124;-73
2023/10/24 00:18:27;;;;;;;0.50;0.25;;;;;;;5.62;70.92;101624.88;6145200;23;20453;-73
2023/10/24 00:20:54;;;;;;;0.47;0.30;;;;;;;5.60;71.05;101626.56;6147241;23;20022;-73
2023/10/24 00:23:21;;;;;;;1.40;0.43;;;;;;;5.56;71.16;101629.97;6143855;23;20028;-72
2023/10/24 00:25:48;;;;;;;1.45;0.30;;;;;;;5.55;70.83;101636.03;6149243;23;20032;-74
2023/10/24 00:28:15;;;;;;;1.75;0.30;;;;;;;5.52;70.79;101633.38;6140475;23;20035;-73
2023/10/24 00:30:42;;;;;;;0.75;0.52;;;;;;;5.50;71.08;101637.66;6148876;23;20017;-73
2023/10/24 00:33:10;;;;;;;1.52;0.40;;;;;;;5.47;71.19;101627.25;6145790;23;20024;-73
2023/10/24 00:35:37;;;;;;;0.88;0.30;;;;;;;5.44;71.23;101629.78;6149778;23;20025;-74
2023/10/24 00:38:04;;;;;;;0.77;0.20;;;;;;;5.42;71.25;101636.66;6147206;23;20420;-74
2023/10/24 00:40:33;;;;;;;1.08;0.43;;;;;;;5.39;71.38;101636.63;6146137;23;20018;-74
2023/10/24 00:43:04;;;;;;;0.90;0.30;;;;;;;5.37;71.45;101633.13;6147824;23;20072;-73
2023/10/24 00:45:31;;;;;;;2.90;0.30;;;;;;;5.35;71.52;101646.06;6143635;23;20025;-74
2023/10/24 00:47:58;;;;;;;1.13;0.30;;;;;;;5.35;71.58;101647.75;6143808;23;20025;-74
2023/10/24 00:50:27;;;;;;;3.25;0.30;;;;;;;5.31;71.53;101646.84;6145000;23;20579;-74
2023/10/24 00:52:54;;;;;;;2.95;0.30;;;;;;;5.31;71.63;101658.94;6145994;23;20017;-73
2023/10/24 00:55:23;;;;;;;1.55;0.30;;;;;;;5.30;71.98;101652.88;6145454;23;20024;-74
2023/10/24 00:57:50;;;;;;;2.85;0.20;;;;;;;5.29;71.78;101656.28;6148083;23;20043;-74
2023/10/24 01:00:17;;;;;;;0.47;0.25;;;;;;;5.30;71.78;101657.19;6144512;23;20021;-74
2023/10/24 01:02:45;;;;;;;2.67;0.28;;;;;;;5.28;72.17;101654.56;6142114;23;20021;-74
2023/10/24 01:05:13;;;;;;;0.95;0.20;;;;;;;5.28;71.89;101656.28;6148208;23;20041;-73
2023/10/24 01:07:42;;;;;;;0.77;0.30;;;;;;;5.27;71.93;101658.00;6147235;23;20468;-73
2023/10/24 01:10:09;;;;;;;2.42;0.30;;;;;;;5.28;72.22;101656.28;6147041;23;20024;-82
2023/10/24 01:12:36;;;;;;;0.50;0.20;;;;;;;5.27;72.39;101651.97;6152992;23;20025;-81
2023/10/24 01:15:04;;;;;;;1.17;0.30;;;;;;;5.27;72.24;101663.19;6153853;23;20021;-82
2023/10/24 01:17:30;;;;;;;0.40;0.20;;;;;;;5.25;72.34;101659.69;6154412;23;20032;-81
2023/10/24 01:19:57;;;;;;;1.15;0.25;;;;;;;5.26;72.33;101665.75;6151816;23;20032;-75
2023/10/24 01:22:26;;;;;;;1.85;0.20;;;;;;;5.25;72.45;101664.88;6128176;23;20021;-73
2023/10/24 01:24:53;;;;;;;0.80;0.30;;;;;;;5.25;72.39;101669.19;6148234;23;20021;-73
2023/10/24 01:27:22;;;;;;;3.55;0.25;;;;;;;5.26;72.61;101668.31;6147857;23;20479;-73
2023/10/24 01:29:48;;;;;;;0.43;0.22;;;;;;;5.26;72.62;101666.59;6145765;23;20022;-73
2023/10/24 01:32:15;;;;;;;0.40;0.20;;;;;;;5.27;72.79;101675.28;6148655;23;20033;-74
2023/10/24 01:34:42;;;;;;;0.32;0.22;;;;;;;5.27;72.50;101662.31;6142859;23;20022;-74
2023/10/24 01:37:09;;;;;;;2.60;0.20;;;;;;;5.26;72.46;101669.19;6148221;23;20026;-73
2023/10/24 01:39:37;;;;;;;0.73;0.28;;;;;;;5.27;72.47;101667.50;6142891;23;20097;-74
2023/10/24 01:42:04;;;;;;;0.50;0.30;;;;;;;5.27;72.75;101668.38;6148250;23;20022;-74
2023/10/24 01:44:31;;;;;;;2.38;0.20;;;;;;;5.27;72.58;101673.56;6145622;23;20461;-73
2023/10/24 01:46:58;;;;;;;1.10;0.30;;;;;;;5.28;72.65;101669.25;6142706;23;20487;-74
2023/10/24 01:49:25;;;;;;;0.75;0.22;;;;;;;5.29;72.80;101677.03;6146507;23;20033;-74
2023/10/24 01:51:52;;;;;;;0.77;0.30;;;;;;;5.30;72.51;101677.91;6144948;23;20021;-73
2023/10/24 01:54:19;;;;;;;1.13;0.30;;;;;;;5.28;72.62;101674.41;6147282;23;20017;-74
2023/10/24 01:56:47;;;;;;;1.55;0.25;;;;;;;5.29;72.74;101679.59;6145516;23;20888;-73
2023/10/24 01:59:14;;;;;;;2.30;0.30;;;;;;;5.30;72.88;101683.09;6146892;23;20022;-74
2023/10/24 02:01:43;;;;;;;5.25;0.30;;;;;;;5.30;72.92;101681.38;6140590;23;20180;-75
2023/10/24 02:04:09;;;;;;;3.38;0.20;;;;;;;5.30;72.91;101686.56;6147717;23;20032;-74
2023/10/24 02:06:36;;;;;;;0.50;0.20;;;;;;;5.31;72.88;101688.28;6146892;23;20477;-74
2023/10/24 02:09:03;;;;;;;0.68;0.30;;;;;;;5.31;72.75;101684.84;6148002;23;20457;-73
2023/10/24 02:11:30;;;;;;;0.77;0.20;;;;;;;5.32;73.21;101689.16;6143918;23;20028;-75
2023/10/24 02:13:58;;;;;;;0.68;0.30;;;;;;;5.32;73.08;101683.97;6148025;23;20026;-74
2023/10/24 02:16:25;;;;;;;1.75;0.20;;;;;;;5.32;72.56;101689.16;6131326;23;20067;-74
2023/10/24 02:18:52;;;;;;;0.90;0.20;;;;;;;5.31;72.83;101687.41;6148843;23;20025;-73
2023/10/24 02:21:19;;;;;;;1.60;0.20;;;;;;;5.33;73.02;101694.38;6140848;23;20026;-74
2023/10/24 02:23:46;;;;;;;0.60;0.30;;;;;;;5.34;73.00;101692.66;6142569;23;20025;-74
2023/10/24 02:26:16;;;;;;;1.52;0.28;;;;;;;5.35;72.83;101696.97;6142833;23;20021;-73
2023/10/24 02:28:43;;;;;;;0.65;0.30;;;;;;;5.35;72.85;101696.97;6143793;23;20032;-73
2023/10/24 02:31:11;;;;;;;0.85;0.17;;;;;;;5.35;72.92;101697.88;6147547;23;20029;-69
2023/10/24 02:33:38;;;;;;;1.15;0.30;;;;;;;5.36;72.83;101698.75;6145002;23;20342;-69
2023/10/24 02:36:08;;;;;;;0.88;0.20;;;;;;;5.36;73.13;101696.16;6147756;23;20028;-69
2023/10/24 02:38:36;;;;;;;1.50;0.28;;;;;;;5.37;73.07;101706.53;6141074;23;20047;-68
2023/10/24 02:41:03;;;;;;;0.68;0.20;;;;;;;5.33;73.06;101696.09;6147110;23;20022;-69
2023/10/24 02:43:31;;;;;;;3.88;0.30;;;;;;;5.36;73.24;101698.75;6142586;23;20024;-69
2023/10/24 02:46:02;;;;;;;0.50;0.20;;;;;;;5.39;72.86;101702.25;6146786;23;20022;-69
2023/10/24 02:48:30;;;;;;;0.85;0.22;;;;;;;5.40;73.06;101703.13;6146029;23;20032;-69
2023/10/24 02:50:57;;;;;;;0.93;0.30;;;;;;;5.40;73.23;101706.59;6144212;23;20191;-69
2023/10/24 02:53:25;;;;;;;0.70;0.30;;;;;;;5.40;73.47;101695.34;6145712;23;20024;-69
2023/10/24 02:55:52;;;;;;;1.77;0.40;;;;;;;5.41;72.93;101710.06;6146611;23;20025;-69
2023/10/24 02:58:19;;;;;;;2.00;0.30;;;;;;;5.40;73.09;101709.16;6147046;23;20021;-69
2023/10/24 03:00:47;;;;;;;1.10;0.30;;;;;;;5.41;73.16;101710.94;6149234;23;20022;-69
2023/10/24 03:03:14;;;;;;;1.30;0.20;;;;;;;5.42;73.26;101709.22;6147463;23;20021;-69
2023/10/24 03:05:42;;;;;;;0.55;0.30;;;;;;;5.42;73.02;101709.22;6149577;23;20028;-69
2023/10/24 03:08:09;;;;;;;3.28;0.30;;;;;;;5.43;73.12;101718.72;6145455;23;20032;-69
2023/10/24 03:10:40;;;;;;;1.40;0.28;;;;;;;5.42;73.37;101709.22;6150055;23;20578;-69
2023/10/24 03:13:07;;;;;;;1.42;0.20;;;;;;;5.44;73.03;101707.53;6148622;23;20026;-69
2023/10/24 03:15:35;;;;;;;1.27;0.30;;;;;;;5.45;73.09;101705.81;6148144;23;20029;-69
2023/10/24 03:18:03;;;;;;;1.85;0.30;;;;;;;5.46;73.29;101704.94;6142975;23;20025;-69
2023/10/24 03:20:29;;;;;;;1.55;0.65;;;;;;;5.46;72.88;101707.53;6148412;23;20518;-69
2023/10/24 03:22:58;;;;;;;2.30;0.30;;;;;;;5.47;72.88;101712.78;6144924;23;20457;-69
2023/10/24 03:25:26;;;;;;;0.93;0.20;;;;;;;5.39;72.93;101694.47;6148754;23;20027;-69
2023/10/24 03:27:54;;;;;;;1.65;0.32;;;;;;;5.47;72.90;101707.59;6142620;23;20021;-69
2023/10/24 03:30:21;;;;;;;2.45;0.20;;;;;;;5.48;72.94;101709.31;6146872;23;20017;-82
2023/10/24 03:32:48;;;;;;;4.78;0.20;;;;;;;5.48;72.92;101706.72;6155770;23;20021;-82
2023/10/24 03:35:15;;;;;;;2.75;0.20;;;;;;;5.49;72.78;101702.41;6154944;23;20021;-82
2023/10/24 03:37:42;;;;;;;2.60;0.73;;;;;;;5.50;72.83;101707.63;6153417;23;20073;-82
2023/10/24 03:40:11;;;;;;;0.70;0.25;;;;;;;5.50;73.09;101706.78;6155307;23;20027;-73
2023/10/24 03:42:38;;;;;;;0.40;0.20;;;;;;;5.50;72.81;101707.63;6149842;23;20032;-73
2023/10/24 03:45:06;;;;;;;0.28;0.20;;;;;;;5.50;72.69;101704.19;6149093;23;20021;-74
2023/10/24 03:47:33;;;;;;;0.70;0.22;;;;;;;5.50;72.86;101707.63;6150379;23;20022;-73
2023/10/24 03:49:59;;;;;;;0.75;0.20;;;;;;;5.51;72.97;101704.19;6146812;23;20021;-74
2023/10/24 03:52:27;;;;;;;1.80;0.40;;;;;;;5.51;72.65;101693.81;6138168;23;20453;-82
2023/10/24 03:54:54;;;;;;;0.57;0.30;;;;;;;5.52;73.00;101695.59;6149564;23;20022;-82
2023/10/24 03:57:22;;;;;;;1.15;0.20;;;;;;;5.53;72.72;101697.31;6154623;23;20343;-81
2023/10/24 03:59:49;;;;;;;2.08;0.40;;;;;;;5.54;72.75;101699.06;6152309;23;20078;-81
2023/10/24 04:02:16;;;;;;;4.00;0.63;;;;;;;5.55;72.70;101700.81;6153881;23;20028;-83
2023/10/24 04:04:43;;;;;;;3.05;0.20;;;;;;;5.55;72.87;101700.81;6154615;23;20024;-82
2023/10/24 04:07:09;;;;;;;0.50;0.25;;;;;;;5.56;72.76;101707.72;6154702;23;20021;-81
2023/10/24 04:09:36;;;;;;;1.23;0.30;;;;;;;5.56;72.70;101705.13;6154992;23;20032;-82
2023/10/24 04:12:04;;;;;;;1.02;0.20;;;;;;;5.56;72.61;101707.72;6154462;23;20025;-83
2023/10/24 04:14:32;;;;;;;1.60;0.30;;;;;;;5.58;72.94;101708.66;6154899;23;20045;-82
2023/10/24 04:16:59;;;;;;;0.70;0.20;;;;;;;5.59;72.85;101706.91;6154207;23;20018;-82
2023/10/24 04:19:26;;;;;;;4.47;0.20;;;;;;;5.59;72.76;101707.78;6153963;23;20028;-80
2023/10/24 04:21:53;;;;;;;0.80;0.20;;;;;;;5.60;73.02;101706.94;6153973;23;20024;-82
2023/10/24 04:24:20;;;;;;;1.52;0.28;;;;;;;5.61;72.92;101705.22;6153592;23;20087;-82
2023/10/24 04:26:46;;;;;;;1.20;0.20;;;;;;;5.60;72.98;101698.28;6155122;23;20024;-82
2023/10/24 04:29:13;;;;;;;0.60;0.30;;;;;;;5.57;73.12;101693.06;6153384;23;20028;-82
2023/10/24 04:31:42;;;;;;;0.85;0.20;;;;;;;5.62;72.93;101702.66;6153375;23;20025;-83
2023/10/24 04:34:09;;;;;;;0.50;0.20;;;;;;;5.63;72.87;101706.09;6137592;23;20025;-82
2023/10/24 04:36:36;;;;;;;0.30;0.20;;;;;;;5.63;72.85;101714.78;6154730;23;20021;-83
2023/10/24 04:39:03;;;;;;;0.47;0.20;;;;;;;5.63;73.19;101704.41;6152245;23;20021;-83
2023/10/24 04:41:29;;;;;;;0.60;0.30;;;;;;;5.64;73.06;101702.69;6148541;23;20053;-73
2023/10/24 04:43:56;;;;;;;0.50;0.30;;;;;;;5.64;72.99;101707.88;6142314;23;20022;-73
2023/10/24 04:46:23;;;;;;;0.90;0.30;;;;;;;5.62;73.09;101702.66;6149218;23;20486;-74
2023/10/24 04:48:52;;;;;;;0.65;0.30;;;;;;;5.64;73.13;101710.47;6142750;23;20056;-73
2023/10/24 04:51:18;;;;;;;2.30;0.30;;;;;;;5.64;73.28;101710.47;6150569;23;20026;-72
2023/10/24 04:53:45;;;;;;;1.77;0.20;;;;;;;5.63;73.25;101704.41;6143206;23;20813;-73
2023/10/24 04:56:12;;;;;;;0.70;0.30;;;;;;;5.64;73.20;101710.47;6145672;23;20022;-72
2023/10/24 04:58:39;;;;;;;0.35;0.20;;;;;;;5.66;73.39;101713.06;6143303;23;20032;-73
2023/10/24 05:01:06;;;;;;;0.80;0.30;;;;;;;5.66;73.26;101713.94;6143772;23;20477;-73
2023/10/24 05:03:35;;;;;;;0.57;0.20;;;;;;;5.65;73.38;101709.59;6147486;23;20100;-73
2023/10/24 05:06:04;;;;;;;0.50;0.28;;;;;;;5.66;73.33;101707.88;6144680;23;20424;-72
2023/10/24 05:08:31;;;;;;;0.73;0.38;;;;;;;5.67;73.36;101709.66;6136399;23;20756;-73
2023/10/24 05:10:58;;;;;;;0.75;0.20;;;;;;;5.68;73.65;101706.19;6147980;23;20348;-72
2023/10/24 05:13:25;;;;;;;1.75;0.20;;;;;;;5.68;73.27;101719.16;6144083;23;20674;-72
2023/10/24 05:15:52;;;;;;;3.45;0.35;;;;;;;5.68;73.45;101716.56;6147535;23;20029;-72
2023/10/24 05:18:19;;;;;;;0.82;0.20;;;;;;;5.68;73.34;101724.34;6144985;23;20040;-72
2023/10/24 05:20:47;;;;;;;1.67;0.30;;;;;;;5.68;73.37;101721.75;6146556;23;20018;-72
2023/10/24 05:23:15;;;;;;;2.17;0.40;;;;;;;5.69;73.55;101718.31;6144453;23;20029;-72
2023/10/24 05:25:42;;;;;;;0.45;0.20;;;;;;;5.67;73.24;101725.19;6145205;23;20017;-72
2023/10/24 05:28:09;;;;;;;0.70;0.30;;;;;;;5.67;73.53;101728.66;6144433;23;20035;-72
2023/10/24 05:30:38;;;;;;;1.10;0.30;;;;;;;5.66;73.41;101728.63;6148037;23;20580;-73
2023/10/24 05:33:20;;;;;;;2.35;0.40;;;;;;;5.64;73.26;101721.69;6115260;23;20056;-72
2023/10/24 05:35:48;;;;;;;4.28;0.30;;;;;;;5.64;73.21;101734.66;6144152;23;20021;-71
2023/10/24 05:38:16;;;;;;;0.77;0.30;;;;;;;5.62;73.24;101733.75;6146211;23;20100;-71
2023/10/24 05:40:45;;;;;;;0.40;0.30;;;;;;;5.61;73.12;101736.34;6142257;23;20453;-72
2023/10/24 05:43:12;;;;;;;0.90;0.30;;;;;;;5.59;72.99;101728.53;6149124;23;20084;-71
2023/10/24 05:45:39;;;;;;;1.70;0.30;;;;;;;5.58;73.08;101739.75;6143033;23;20561;-71
2023/10/24 05:48:06;;;;;;;1.02;0.30;;;;;;;5.57;73.22;101744.88;6147878;23;20022;-71
2023/10/24 05:50:34;;;;;;;0.73;0.30;;;;;;;5.54;73.18;101750.03;6143162;23;20021;-73
2023/10/24 05:53:01;;;;;;;1.02;0.35;;;;;;;5.53;73.27;101759.53;6146362;23;20022;-74
2023/10/24 05:55:29;;;;;;;0.50;0.25;;;;;;;5.52;73.18;101759.47;6146055;23;20064;-73
2023/10/24 05:57:56;;;;;;;0.95;0.73;;;;;;;5.49;73.01;101760.28;6147808;23;20444;-74
2023/10/24 06:00:23;;;;;;;1.20;0.20;;;;;;;5.48;72.93;101758.56;6147594;23;20022;-73
2023/10/24 06:02:50;;;;;;;0.30;0.20;;;;;;;5.45;72.92;101766.28;6146665;23;20018;-73
2023/10/24 06:05:17;;;;;;;2.50;0.30;;;;;;;5.43;72.76;101770.53;6144268;23;20021;-76
2023/10/24 06:07:44;;;;;;;3.20;0.30;;;;;;;5.41;72.76;101786.09;6150367;23;20018;-78
2023/10/24 06:10:11;;;;;;;75.35;28.08;;;;;;;5.39;72.64;101784.31;6149976;23;20025;-74
2023/10/24 06:12:39;;;;;;;5.18;2.15;;;;;;;5.36;72.76;101786.84;6152846;23;20021;-76
2023/10/24 06:15:07;;;;;;;1.65;0.95;;;;;;;5.34;72.92;101791.09;6152484;23;20330;-77
2023/10/24 06:17:34;;;;;;;2.08;0.80;;;;;;;5.32;72.86;101792.78;6151880;23;20032;-77
2023/10/24 06:20:01;;;;;;;0.75;0.70;;;;;;;5.30;73.10;101799.69;6149133;23;20464;-77
2023/10/24 06:22:28;;;;;;;2.05;0.28;;;;;;;5.29;73.01;101810.88;6152359;23;20457;-77
2023/10/24 06:24:56;;;;;;;2.38;0.32;;;;;;;5.27;73.08;101809.97;6151500;23;20021;-77
2023/10/24 06:27:22;;;;;;;0.68;0.30;;;;;;;5.25;73.36;101809.94;6152389;23;20395;-76
2023/10/24 06:29:51;;;;;;;1.15;0.43;;;;;;;5.26;73.51;101818.56;6147841;23;20049;-77
2023/10/24 06:32:18;;;;;;;1.42;0.40;;;;;;;5.24;73.47;101812.50;6153469;23;20041;-76
2023/10/24 06:34:44;;;;;;;1.63;0.30;;;;;;;5.23;73.70;101815.94;6152022;23;20024;-77
2023/10/24 06:37:11;;;;;;;2.80;0.60;;;;;;;5.23;73.77;101810.75;6153644;23;20031;-80
2023/10/24 06:39:38;;;;;;;5.78;0.77;;;;;;;5.22;73.79;101816.78;6152241;23;20028;-76
2023/10/24 06:42:06;;;;;;;1.55;0.38;;;;;;;5.23;73.97;101815.94;6152852;23;20027;-77
2023/10/24 06:44:33;;;;;;;2.33;1.25;;;;;;;5.23;73.95;101818.53;6153448;23;20441;-77
2023/10/24 06:47:01;;;;;;;4.78;1.60;;;;;;;5.22;74.15;101828.00;6154201;23;20022;-77
2023/10/24 06:49:28;;;;;;;14.23;0.52;;;;;;;5.23;74.32;101821.09;6153000;23;20467;-77
2023/10/24 06:51:54;;;;;;;2.92;1.38;;;;;;;5.23;74.28;101837.53;6154744;23;20452;-77
2023/10/24 06:54:21;;;;;;;0.85;0.52;;;;;;;5.24;74.26;101835.84;6151222;23;20411;-77
2023/10/24 06:56:48;;;;;;;1.75;0.75;;;;;;;5.25;74.50;101840.16;6154621;23;20017;-76
2023/10/24 06:59:15;;;;;;;4.80;0.43;;;;;;;5.25;74.63;101841.03;6152168;23;20322;-76
2023/10/24 07:01:42;;;;;;;1.80;0.47;;;;;;;5.27;74.54;101844.53;6154565;23;20453;-76
2023/10/24 07:04:10;;;;;;;2.03;0.45;;;;;;;5.28;74.82;101840.22;6152424;23;20092;-77
2023/10/24 07:06:37;;;;;;;1.67;0.35;;;;;;;5.28;75.13;101842.81;6151819;23;20021;-76
2023/10/24 07:09:04;;;;;;;2.72;0.40;;;;;;;5.29;74.88;101842.81;6152489;23;20028;-77
2023/10/24 07:11:31;;;;;;;0.82;0.30;;;;;;;5.31;74.98;101845.47;6151486;23;20036;-73
2023/10/24 07:13:58;;;;;;;0.95;0.40;;;;;;;5.32;74.87;101848.09;6148804;23;20021;-72
2023/10/24 07:16:25;;;;;;;3.03;0.47;;;;;;;5.35;74.87;101849.84;6148534;23;20021;-72
2023/10/24 07:18:52;;;;;;;8.30;2.45;;;;;;;5.36;75.12;101854.19;6148993;23;20025;-72
2023/10/24 07:21:20;;;;;;;4.53;1.95;;;;;;;5.35;75.26;101845.56;6147604;23;20108;-71
2023/10/24 07:23:47;;;;;;;6.57;0.50;;;;;;;5.39;75.27;101849.09;6149642;23;20096;-72
2023/10/24 07:26:14;;;;;;;2.55;0.45;;;;;;;5.40;75.03;101846.50;6150204;23;20017;-72
2023/10/24 07:28:41;;;;;;;6.05;1.65;;;;;;;5.42;75.37;101854.31;6149959;23;20029;-72
2023/10/24 07:31:08;;;;;;;2.83;0.75;;;;;;;5.44;75.35;101854.38;6149039;23;20028;-72
2023/10/24 07:33:34;;;;;;;1.73;0.57;;;;;;;5.46;75.24;101858.72;6148534;23;20028;-72
2023/10/24 07:36:05;;;;;;;1.60;0.40;;;;;;;5.49;75.23;101853.59;6149705;23;20024;-72
2023/10/24 07:38:33;;;;;;;2.60;0.50;;;;;;;5.50;75.75;101863.13;6149826;23;20130;-71
2023/10/24 07:41:01;;;;;;;0.68;0.40;;;;;;;5.52;75.49;101860.53;6149178;23;20083;-72
2023/10/24 07:43:28;;;;;;;1.70;0.40;;;;;;;5.54;75.51;101859.75;6150422;23;20028;-72
2023/10/24 07:45:55;;;;;;;1.48;0.50;;;;;;;5.53;75.44;101863.19;6150516;23;20017;-72
2023/10/24 07:48:22;;;;;;;2.00;0.60;;;;;;;5.58;75.32;101869.34;6150679;23;20021;-71
2023/10/24 07:50:52;;;;;;;18.27;2.22;;;;;;;5.60;75.00;101875.41;6149136;23;20029;-72
2023/10/24 07:53:19;;;;;;;12.93;1.00;;;;;;;5.61;75.29;101874.59;6144663;23;20057;-71
2023/10/24 07:55:48;;;;;;;3.38;0.70;;;;;;;5.64;75.14;101882.41;6148283;23;20024;-71
2023/10/24 07:58:17;;;;;;;2.13;0.52;;;;;;;5.64;75.30;101876.38;6131318;23;20137;-72
2023/10/24 08:00:44;;;;;;;1.52;0.60;;;;;;;5.67;75.00;101876.41;6147451;23;20029;-72
2023/10/24 08:03:13;;;;;;;13.85;1.65;;;;;;;5.70;74.96;101884.25;6147159;23;20026;-71
2023/10/24 08:05:40;;;;;;;2.00;0.55;;;;;;;5.72;74.79;101879.06;6148698;23;20028;-73
2023/10/24 08:08:07;;;;;;;5.55;0.85;;;;;;;5.74;75.03;101877.41;6150432;23;20322;-72
2023/10/24 08:10:34;;;;;;;2.42;0.88;;;;;;;5.76;74.62;101875.72;6148839;23;20021;-74
2023/10/24 08:13:02;;;;;;;1.92;0.60;;;;;;;5.77;74.46;101872.25;6149918;23;20492;-74
2023/10/24 08:15:29;;;;;;;2.05;0.80;;;;;;;5.76;74.61;101868.81;6150010;23;20036;-74
2023/10/24 08:17:57;;;;;;;135.43;11.10;;;;;;;5.80;74.44;101872.31;6149762;23;20753;-74
2023/10/24 08:20:24;;;;;;;1.48;0.57;;;;;;;5.81;74.40;101871.50;6150755;23;20515;-74
2023/10/24 08:22:51;;;;;;;2.30;0.40;;;;;;;5.83;74.11;101874.97;6147265;23;20028;-75
2023/10/24 08:25:18;;;;;;;2.42;0.80;;;;;;;5.80;74.31;101868.00;6151230;23;20080;-74
2023/10/24 08:27:45;;;;;;;44.17;2.85;;;;;;;5.84;74.14;101875.00;6147689;23;20323;-75
2023/10/24 08:30:14;;;;;;;3.20;0.57;;;;;;;5.85;74.03;101871.56;6150829;23;20029;-74
2023/10/24 08:32:41;;;;;;;2.70;0.55;;;;;;;5.86;73.79;101873.34;6145775;23;20022;-74
2023/10/24 08:35:08;;;;;;;2.80;0.60;;;;;;;5.88;73.63;101872.47;6150553;23;20043;-74
2023/10/24 08:37:35;;;;;;;3.83;0.40;;;;;;;5.89;73.55;101869.94;6148853;23;20433;-74
2023/10/24 08:40:02;;;;;;;1.67;0.82;;;;;;;5.90;73.42;101871.66;6149527;23;20456;-74
2023/10/24 08:42:30;;;;;;;3.33;0.43;;;;;;;5.91;73.10;101870.81;6146960;23;20049;-74
2023/10/24 08:44:58;;;;;;;2.78;0.30;;;;;;;5.93;73.33;101876.94;6148729;23;20029;-74
2023/10/24 08:47:28;;;;;;;1.95;0.40;;;;;;;5.95;72.82;101866.56;6150433;23;20377;-74
2023/10/24 08:49:56;;;;;;;3.67;0.70;;;;;;;5.96;73.00;101870.94;6147242;23;20084;-74
2023/10/24 08:52:23;;;;;;;1.42;0.55;;;;;;;5.98;72.78;101859.75;6150446;23;20025;-74
2023/10/24 08:54:51;;;;;;;2.97;0.50;;;;;;;6.00;72.69;101858.03;6147102;23;20025;-74
2023/10/24 08:57:22;;;;;;;2.17;0.45;;;;;;;6.02;72.09;101852.88;6146655;23;20025;-74
2023/10/24 08:59:51;;;;;;;3.30;0.60;;;;;;;6.03;72.19;101852.03;6149754;23;20452;-75
2023/10/24 09:02:18;;;;;;;0.60;0.20;;;;;;;6.06;71.62;101852.97;6149470;23;20017;-75
2023/10/24 09:04:47;;;;;;;1.17;0.20;;;;;;;6.05;71.49;101851.22;6148299;23;20022;-76
2023/10/24 09:07:14;;;;;;;1.67;0.30;;;;;;;6.10;71.34;101850.44;6147297;23;20043;-76
2023/10/24 09:09:41;;;;;;;1.33;0.32;;;;;;;6.12;71.04;101853.91;6149661;23;20080;-75
2023/10/24 09:12:14;;;;;;;0.80;0.38;;;;;;;6.14;70.56;101853.09;6147789;23;20021;-75
2023/10/24 09:14:45;;;;;;;1.77;0.40;;;;;;;6.17;70.40;101854.84;6150097;23;20018;-75
2023/10/24 09:17:13;;;;;;;1.05;0.30;;;;;;;6.18;70.16;101856.63;6147689;23;20342;-75
2023/10/24 09:19:41;;;;;;;1.75;0.30;;;;;;;6.21;69.77;101861.88;6145584;23;20025;-75
2023/10/24 09:22:09;;;;;;;3.15;1.30;;;;;;;6.23;69.53;101865.34;6146068;23;20103;-73
2023/10/24 09:24:36;;;;;;;1.30;0.40;;;;;;;6.26;69.62;101863.69;6147472;23;20017;-72
2023/10/24 09:27:03;;;;;;;2.05;0.60;;;;;;;6.30;68.98;101869.78;6147713;23;20032;-71
2023/10/24 09:29:32;;;;;;;3.17;0.65;;;;;;;6.33;69.00;101864.66;6148551;23;20357;-71
2023/10/24 09:31:59;;;;;;;4.25;0.30;;;;;;;6.35;68.68;101868.16;6147575;23;20461;-72
2023/10/24 09:34:27;;;;;;;0.60;0.32;;;;;;;6.37;68.50;101861.25;6148485;23;20441;-72
2023/10/24 09:36:54;;;;;;;4.35;0.73;;;;;;;6.39;68.33;101866.47;6146462;23;20103;-71
2023/10/24 09:39:22;;;;;;;1.15;0.30;;;;;;;6.42;68.16;101871.72;6146969;23;20068;-71
2023/10/24 09:41:50;;;;;;;3.40;0.30;;;;;;;6.43;68.41;101868.25;6150096;23;20021;-72
2023/10/24 09:44:18;;;;;;;0.70;0.40;;;;;;;6.45;67.46;101875.22;6148511;23;20024;-72
2023/10/24 09:46:46;;;;;;;1.42;0.47;;;;;;;6.47;67.98;101872.66;6149388;23;20017;-71
2023/10/24 09:49:13;;;;;;;3.47;0.50;;;;;;;6.48;67.50;101871.81;6144017;23;20018;-71
2023/10/24 09:51:41;;;;;;;6.72;0.73;;;;;;;6.48;67.60;101872.69;6147470;23;20021;-71
2023/10/24 09:54:08;;;;;;;1.13;0.40;;;;;;;6.46;66.92;101866.59;6144651;23;20104;-72
2023/10/24 09:56:37;;;;;;;2.00;0.30;;;;;;;6.49;67.05;101871.84;6148674;23;20028;-72
2023/10/24 09:59:04;;;;;;;0.77;0.28;;;;;;;6.49;67.13;101877.03;6147613;23;20057;-72
2023/10/24 10:01:32;;;;;;;1.27;0.30;;;;;;;6.51;66.81;101877.03;6147489;23;20022;-72
2023/10/24 10:04:02;;;;;;;0.90;0.30;;;;;;;6.50;66.49;101873.59;6148311;23;20637;-73
2023/10/24 10:06:29;;;;;;;2.80;0.30;;;;;;;6.50;66.95;101873.59;6148069;23;20024;-73
2023/10/24 10:08:58;;;;;;;2.60;0.30;;;;;;;6.51;66.52;101869.25;6148761;23;20037;-72
2023/10/24 10:11:27;;;;;;;0.95;0.40;;;;;;;6.51;66.53;101875.31;6148874;23;20029;-72
2023/10/24 10:14:08;;;;;;;3.50;0.30;;;;;;;6.51;66.67;101872.72;6148919;23;20025;-72
2023/10/24 10:16:51;;;;;;;1.08;0.57;;;;;;;6.52;66.49;101871.91;6147782;23;20022;-73
2023/10/24 10:19:52;;;;;;;0.65;0.45;;;;;;;6.52;66.82;101864.09;6148005;23;20022;-72
2023/10/24 10:22:46;;;;;;;0.70;0.47;;;;;;;6.53;66.67;101863.25;6148454;23;20545;-72
2023/10/24 10:25:50;;;;;;;2.22;0.50;;;;;;;6.55;66.78;101870.19;6131656;23;20021;-72
2023/10/24 10:28:30;;;;;;;1.40;0.20;;;;;;;6.52;66.52;101856.31;6125296;23;20022;-72
2023/10/24 10:31:15;;;;;;;0.55;0.30;;;;;;;6.52;66.59;101858.03;6146709;23;20028;-76
2023/10/24 10:33:42;;;;;;;1.08;0.38;;;;;;;6.51;66.81;101859.75;6149521;23;20021;-76
2023/10/24 10:36:10;;;;;;;1.45;0.30;;;;;;;6.50;66.05;101852.81;6149378;23;20024;-76
2023/10/24 10:38:39;;;;;;;1.23;0.20;;;;;;;6.51;66.20;101853.69;6147416;23;20028;-76
2023/10/24 10:41:34;;;;;;;1.73;0.35;;;;;;;6.51;66.09;101853.69;6151044;23;20429;-72
2023/10/24 10:44:02;;;;;;;2.05;0.32;;;;;;;6.49;65.81;101851.09;6148218;23;20025;-73
2023/10/24 10:46:32;;;;;;;0.77;0.77;;;;;;;6.49;65.47;101850.22;6149236;23;20104;-72
2023/10/24 10:49:00;;;;;;;0.75;0.30;;;;;;;6.49;65.52;101851.09;6149141;23;20093;-72
2023/10/24 10:51:29;;;;;;;73.35;3.63;;;;;;;6.49;65.55;101850.22;6112804;23;20369;-72
2023/10/24 10:54:04;;;;;;;14.25;1.33;;;;;;;6.48;65.67;101851.03;6146669;23;20017;-72
2023/10/24 10:56:34;;;;;;;0.68;0.30;;;;;;;6.48;66.02;101851.91;6145100;23;20069;-73
2023/10/24 10:59:25;;;;;;;14.32;0.80;;;;;;;6.51;65.77;101853.69;6148738;23;20067;-72
2023/10/24 11:02:05;;;;;;;1.20;0.50;;;;;;;6.50;65.91;101850.22;6147496;23;20368;-72
2023/10/24 11:04:34;;;;;;;1.13;0.30;;;;;;;6.51;65.50;101845.91;6146996;23;20028;-72
2023/10/24 11:07:03;;;;;;;0.47;0.30;;;;;;;6.50;65.05;101849.34;6148835;23;20021;-72
2023/10/24 11:09:35;;;;;;;0.90;0.30;;;;;;;6.51;64.86;101862.34;6148155;23;20025;-72
2023/10/24 11:12:24;;;;;;;4.70;0.45;;;;;;;6.51;65.34;101851.09;6148477;23;20033;-72
2023/10/24 11:15:24;;;;;;;1.02;0.30;;;;;;;6.51;64.89;101854.56;6147712;23;20018;-72
2023/10/24 11:17:52;;;;;;;1.20;0.40;;;;;;;6.52;64.67;101852.84;6148055;23;20018;-72
2023/10/24 11:20:20;;;;;;;3.22;0.50;;;;;;;6.50;63.61;101852.81;6149714;23;20326;-72
2023/10/24 11:22:47;;;;;;;0.68;0.30;;;;;;;6.50;63.56;101852.81;6149277;23;20021;-72
2023/10/24 11:25:15;;;;;;;0.73;0.30;;;;;;;6.51;63.49;101854.56;6150280;23;20021;-72
2023/10/24 11:27:43;;;;;;;0.32;0.30;;;;;;;6.51;63.25;101846.75;6148669;23;20520;-72
2023/10/24 11:30:10;;;;;;;0.60;0.30;;;;;;;6.51;62.84;101849.34;6150417;23;20076;-72
2023/10/24 11:32:37;;;;;;;0.50;0.30;;;;;;;6.51;62.55;101851.97;6137441;23;20476;-71
2023/10/24 11:35:07;;;;;;;2.35;0.40;;;;;;;6.51;62.55;101854.56;6142466;23;20025;-72
2023/10/24 11:37:34;;;;;;;0.73;0.30;;;;;;;6.51;62.30;101849.34;6148157;23;20017;-72
2023/10/24 11:40:01;;;;;;;0.75;0.20;;;;;;;6.51;62.14;101846.75;6145909;23;20021;-74